createdAt,value
2023-03-05T00:01:41.666Z,43.11
2023-03-05T00:04:15.222Z,43.35
2023-03-05T00:06:45.275Z,43.37
2023-03-05T00:09:14.538Z,43.64
2023-03-05T00:11:43.164Z,43.88
2023-03-05T00:14:12.836Z,43.75
2023-03-05T00:16:41.546Z,44.10
2023-03-05T00:19:11.219Z,44.42
2023-03-05T00:21:41.495Z,44.68
2023-03-05T00:24:18.892Z,45.27
2023-03-05T00:26:47.648Z,45.58
2023-03-05T00:29:24.238Z,45.36
2023-03-05T00:31:52.564Z,45.81
2023-03-05T00:34:21.316Z,45.69
2023-03-05T00:36:52.140Z,45.58
2023-03-05T00:39:21.914Z,45.88
2023-03-05T00:41:54.350Z,46.40
2023-03-05T00:44:22.575Z,46.43
2023-03-05T00:46:51.185Z,46.45
2023-03-05T00:49:19.705Z,46.67
2023-03-05T00:51:48.094Z,46.62
2023-03-05T00:54:16.462Z,46.61
2023-03-05T00:56:45.314Z,46.71
2023-03-05T00:59:13.878Z,46.72
2023-03-05T01:01:42.263Z,46.64
2023-03-05T01:04:10.737Z,46.71
2023-03-05T01:06:43.009Z,47.00
2023-03-05T01:09:11.665Z,47.01
2023-03-05T01:11:40.563Z,47.21
2023-03-05T01:14:09.048Z,47.29
2023-03-05T01:16:37.443Z,47.85
2023-03-05T01:19:06.151Z,47.84
2023-03-05T01:21:36.208Z,47.91
2023-03-05T01:24:06.726Z,47.96
2023-03-05T01:26:35.024Z,48.30
2023-03-05T01:29:03.908Z,48.18
2023-03-05T01:31:32.362Z,48.53
2023-03-05T01:34:01.088Z,48.91
2023-03-05T01:36:29.642Z,48.72
2023-03-05T01:38:58.323Z,48.60
2023-03-05T01:41:27.420Z,48.45
2023-03-05T01:43:58.081Z,49.18
2023-03-05T01:46:39.413Z,49.18
2023-03-05T01:49:17.357Z,49.68
2023-03-05T01:52:01.218Z,49.26
2023-03-05T01:54:46.682Z,49.52
2023-03-05T01:57:18.523Z,50.37
2023-03-05T01:59:51.164Z,49.86
2023-03-05T02:02:22.272Z,50.63
2023-03-05T02:04:55.194Z,50.22
2023-03-05T02:07:25.151Z,50.27
2023-03-05T02:09:54.395Z,50.37
2023-03-05T02:12:23.148Z,50.90
2023-03-05T02:14:59.408Z,50.94
2023-03-05T02:17:28.792Z,50.91
2023-03-05T02:20:08.667Z,51.07
2023-03-05T02:22:37.194Z,50.86
2023-03-05T02:25:31.777Z,50.71
2023-03-05T02:28:09.113Z,50.98
2023-03-05T02:30:37.712Z,51.18
2023-03-05T02:33:06.161Z,51.41
2023-03-05T02:35:35.282Z,51.50
2023-03-05T02:38:03.986Z,51.59
2023-03-05T02:40:32.468Z,51.39
2023-03-05T02:43:00.891Z,52.05
2023-03-05T02:45:29.435Z,51.82
2023-03-05T02:47:57.917Z,52.04
2023-03-05T02:50:28.339Z,52.72
2023-03-05T02:52:56.645Z,52.06
2023-03-05T02:55:24.800Z,52.09
2023-03-05T02:57:53.802Z,52.10
2023-03-05T03:00:22.694Z,52.07
2023-03-05T03:02:51.019Z,51.99
2023-03-05T03:05:19.357Z,52.05
2023-03-05T03:07:48.756Z,51.88
2023-03-05T03:10:17.645Z,52.46
2023-03-05T03:12:46.142Z,52.53
2023-03-05T03:15:16.685Z,52.87
2023-03-05T03:17:45.664Z,52.86
2023-03-05T03:20:16.926Z,52.79
2023-03-05T03:22:47.854Z,52.53
2023-03-05T03:25:23.296Z,53.18
2023-03-05T03:27:51.780Z,53.60
2023-03-05T03:30:20.220Z,53.34
2023-03-05T03:32:49.266Z,53.56
2023-03-05T03:35:17.775Z,53.21
2023-03-05T03:37:46.040Z,52.62
2023-03-05T03:40:18.039Z,52.58
2023-03-05T03:42:46.408Z,52.35
2023-03-05T03:45:14.804Z,52.34
2023-03-05T03:47:43.080Z,52.89
2023-03-05T03:50:11.889Z,53.06
2023-03-05T03:52:41.149Z,52.90
2023-03-05T03:55:12.877Z,53.09
2023-03-05T03:57:41.548Z,53.17
2023-03-05T04:00:11.733Z,53.19
2023-03-05T04:02:40.363Z,53.11
2023-03-05T04:05:09.337Z,52.70
2023-03-05T04:07:37.397Z,52.47
2023-03-05T04:10:06.340Z,53.21
2023-03-05T04:12:34.973Z,53.24
2023-03-05T04:15:03.370Z,53.52
2023-03-05T04:17:32.966Z,53.46
2023-03-05T04:20:02.020Z,53.10
2023-03-05T04:22:30.426Z,53.01
2023-03-05T04:24:59.272Z,53.48
2023-03-05T04:27:28.632Z,52.95
2023-03-05T04:29:56.731Z,52.63
2023-03-05T04:32:30.127Z,53.12
2023-03-05T04:34:58.955Z,52.48
2023-03-05T04:37:27.388Z,52.22
2023-03-05T04:39:55.781Z,52.40
2023-03-05T04:42:24.361Z,51.56
2023-03-05T04:44:52.894Z,51.30
2023-03-05T04:47:21.560Z,51.36
2023-03-05T04:49:49.898Z,51.29
2023-03-05T04:52:21.045Z,51.20
2023-03-05T04:54:49.395Z,51.40
2023-03-05T04:57:18.234Z,51.65
2023-03-05T04:59:46.522Z,51.63
2023-03-05T05:02:15.242Z,51.82
2023-03-05T05:04:46.338Z,51.71
2023-03-05T05:07:17.897Z,51.61
2023-03-05T05:09:46.526Z,51.84
2023-03-05T05:12:15.039Z,51.74
2023-03-05T05:14:44.264Z,51.73
2023-03-05T05:17:14.182Z,51.75
2023-03-05T05:19:42.802Z,51.68
2023-03-05T05:22:11.189Z,51.74
2023-03-05T05:24:39.279Z,52.05
2023-03-05T05:27:08.404Z,51.84
2023-03-05T05:29:38.952Z,52.10
2023-03-05T05:32:07.699Z,52.17
2023-03-05T05:34:36.099Z,51.79
2023-03-05T05:37:04.588Z,52.07
2023-03-05T05:39:32.916Z,52.39
2023-03-05T05:42:01.192Z,52.60
2023-03-05T05:44:29.586Z,52.87
2023-03-05T05:46:57.850Z,53.06
2023-03-05T05:49:26.480Z,53.34
2023-03-05T05:51:54.931Z,53.89
2023-03-05T05:54:23.353Z,54.48
2023-03-05T05:56:52.132Z,54.98
2023-03-05T05:59:20.511Z,55.29
2023-03-05T06:01:49.456Z,55.44
2023-03-05T06:04:17.899Z,55.37
2023-03-05T06:06:46.617Z,55.50
2023-03-05T06:09:15.599Z,55.48
2023-03-05T06:11:44.058Z,55.70
2023-03-05T06:14:13.205Z,56.14
2023-03-05T06:16:42.135Z,56.19
2023-03-05T06:19:15.442Z,56.40
2023-03-05T06:21:44.394Z,56.40
2023-03-05T06:24:14.271Z,56.51
2023-03-05T06:26:46.994Z,56.87
2023-03-05T06:29:15.640Z,57.19
2023-03-05T06:31:44.296Z,57.30
2023-03-05T06:34:12.589Z,57.56
2023-03-05T06:36:40.823Z,57.71
2023-03-05T06:39:10.479Z,57.70
2023-03-05T06:41:38.704Z,58.37
2023-03-05T06:44:07.190Z,58.91
2023-03-05T06:46:39.967Z,58.98
2023-03-05T06:49:09.764Z,58.81
2023-03-05T06:51:40.395Z,59.13
2023-03-05T06:54:15.448Z,59.23
2023-03-05T06:56:47.640Z,60.89
2023-03-05T06:59:17.219Z,60.93
2023-03-05T07:01:45.860Z,60.84
2023-03-05T07:04:15.972Z,61.04
2023-03-05T07:06:44.327Z,61.46
2023-03-05T07:09:15.640Z,61.22
2023-03-05T07:11:44.065Z,61.89
2023-03-05T07:14:13.557Z,63.21
2023-03-05T07:16:41.662Z,62.52
2023-03-05T07:19:11.853Z,62.72
2023-03-05T07:21:41.872Z,63.08
2023-03-05T07:24:12.655Z,62.53
2023-03-05T07:26:40.887Z,61.87
2023-03-05T07:29:09.963Z,61.87
2023-03-05T07:31:38.400Z,61.57
2023-03-05T07:34:07.010Z,61.17
2023-03-05T07:36:35.527Z,62.28
2023-03-05T07:39:07.858Z,62.41
2023-03-05T07:41:36.063Z,62.03
2023-03-05T07:44:04.530Z,61.76
2023-03-05T07:46:34.245Z,62.01
2023-03-05T07:49:02.856Z,61.49
2023-03-05T07:51:33.242Z,61.17
2023-03-05T07:54:02.856Z,61.10
2023-03-05T07:56:35.682Z,60.73
2023-03-05T07:59:07.346Z,60.47
2023-03-05T08:01:36.131Z,59.80
2023-03-05T08:04:06.130Z,60.03
2023-03-05T08:06:34.783Z,59.81
2023-03-05T08:09:03.199Z,59.76
2023-03-05T08:11:31.502Z,59.58
2023-03-05T08:14:01.237Z,59.46
2023-03-05T08:16:29.520Z,59.65
2023-03-05T08:18:58.754Z,59.69
2023-03-05T08:21:35.109Z,59.85
2023-03-05T08:24:07.323Z,59.92
2023-03-05T08:26:38.762Z,59.49
2023-03-05T08:29:08.723Z,59.30
2023-03-05T08:31:39.223Z,59.52
2023-03-05T08:34:07.915Z,59.31
2023-03-05T08:36:36.005Z,58.88
2023-03-05T08:39:07.087Z,58.48
2023-03-05T08:41:36.303Z,57.77
2023-03-05T08:44:05.244Z,57.73
2023-03-05T08:46:33.924Z,57.51
2023-03-05T08:49:02.909Z,57.58
2023-03-05T08:51:32.347Z,56.91
2023-03-05T08:54:02.474Z,56.42
2023-03-05T08:56:31.691Z,55.74
2023-03-05T08:59:00.545Z,56.00
2023-03-05T09:01:30.846Z,56.39
2023-03-05T09:04:00.537Z,56.69
2023-03-05T09:06:28.755Z,55.84
2023-03-05T09:09:00.830Z,56.03
2023-03-05T09:11:36.367Z,55.89
2023-03-05T09:14:06.437Z,55.97
2023-03-05T09:16:36.999Z,55.84
2023-03-05T09:19:05.524Z,56.52
2023-03-05T09:21:34.282Z,56.71
2023-03-05T09:24:03.491Z,57.11
2023-03-05T09:26:32.172Z,57.08
2023-03-05T09:29:00.430Z,57.16
2023-03-05T09:31:29.207Z,57.54
2023-03-05T09:33:57.628Z,57.01
2023-03-05T09:36:31.605Z,57.19
2023-03-05T09:39:00.379Z,57.66
2023-03-05T09:41:54.874Z,57.32
2023-03-05T09:44:24.030Z,57.43
2023-03-05T09:46:56.063Z,56.30
2023-03-05T09:49:34.468Z,55.17
2023-03-05T09:52:14.241Z,55.61
2023-03-05T09:54:44.909Z,55.97
2023-03-05T09:57:19.583Z,55.96
2023-03-05T09:59:50.975Z,55.71
2023-03-05T10:02:26.250Z,54.96
2023-03-05T10:05:01.071Z,54.60
2023-03-05T10:07:34.622Z,54.28
2023-03-05T10:10:27.716Z,53.88
2023-03-05T10:13:13.978Z,54.02
2023-03-05T10:15:52.435Z,53.82
2023-03-05T10:18:49.310Z,54.90
2023-03-05T10:21:47.453Z,54.80
2023-03-05T10:24:26.115Z,54.90
2023-03-05T10:27:14.398Z,54.65
2023-03-05T10:29:52.298Z,55.00
2023-03-05T10:32:58.728Z,54.46
2023-03-05T10:35:45.838Z,55.71
2023-03-05T10:38:53.753Z,55.25
2023-03-05T10:41:53.552Z,55.45
2023-03-05T10:44:35.367Z,56.99
2023-03-05T10:47:13.180Z,56.56
2023-03-05T10:49:53.324Z,56.16
2023-03-05T10:52:37.889Z,56.04
2023-03-05T10:55:26.952Z,55.36
2023-03-05T10:57:56.330Z,55.32
2023-03-05T11:00:28.537Z,55.05
2023-03-05T11:03:08.486Z,55.08
2023-03-05T11:06:04.864Z,55.16
2023-03-05T11:08:36.299Z,55.53
2023-03-05T11:11:10.393Z,55.17
2023-03-05T11:13:58.809Z,55.05
2023-03-05T11:16:30.250Z,55.14
2023-03-05T11:19:17.972Z,55.13
2023-03-05T11:22:05.121Z,54.99
2023-03-05T11:24:34.170Z,54.69
2023-03-05T11:27:38.212Z,54.46
2023-03-05T11:30:26.429Z,54.59
2023-03-05T11:33:10.549Z,54.36
2023-03-05T11:35:42.354Z,54.27
2023-03-05T11:38:26.948Z,53.90
2023-03-05T11:40:58.965Z,53.99
2023-03-05T11:43:27.455Z,54.07
2023-03-05T11:46:05.971Z,54.71
2023-03-05T11:48:39.185Z,54.54
2023-03-05T11:51:25.869Z,54.24
2023-03-05T11:54:12.368Z,54.12
2023-03-05T11:56:44.063Z,54.11
2023-03-05T11:59:19.263Z,54.01
2023-03-05T12:01:54.298Z,53.59
2023-03-05T12:04:22.894Z,53.45
2023-03-05T12:07:04.688Z,53.55
2023-03-05T12:09:49.664Z,53.37
2023-03-05T12:12:36.384Z,52.82
2023-03-05T12:15:26.273Z,52.79
2023-03-05T12:18:14.862Z,52.74
2023-03-05T12:21:21.004Z,52.15
2023-03-05T12:24:06.513Z,52.20
2023-03-05T12:26:53.283Z,51.94
2023-03-05T12:29:31.525Z,51.89
2023-03-05T12:32:02.361Z,51.66
2023-03-05T12:34:43.081Z,50.95
2023-03-05T12:37:13.983Z,50.08
2023-03-05T12:39:49.812Z,48.64
2023-03-05T12:42:30.269Z,45.60
2023-03-05T12:45:14.803Z,39.89
2023-03-05T12:48:12.967Z,35.10
2023-03-05T12:50:43.557Z,33.10
2023-03-05T12:53:15.604Z,28.97
2023-03-05T12:55:45.901Z,26.28
2023-03-05T12:58:32.516Z,23.36
2023-03-05T13:01:20.246Z,21.77
2023-03-05T13:04:21.799Z,20.54
2023-03-05T13:07:04.786Z,18.68
2023-03-05T13:09:36.754Z,17.84
2023-03-05T13:12:13.512Z,17.08
2023-03-05T13:15:03.802Z,16.04
2023-03-05T13:17:44.712Z,15.98
2023-03-05T13:20:30.738Z,17.62
2023-03-05T13:23:22.888Z,16.39
2023-03-05T13:26:19.027Z,15.31
2023-03-05T13:29:14.112Z,14.72
2023-03-05T13:31:52.136Z,17.15
2023-03-05T13:34:46.706Z,16.51
2023-03-05T13:37:22.160Z,15.20
2023-03-05T13:39:52.889Z,14.58
2023-03-05T13:42:28.849Z,14.06
2023-03-05T13:44:59.561Z,14.56
2023-03-05T13:47:30.859Z,14.88
2023-03-05T13:50:06.322Z,14.98
2023-03-05T13:52:38.073Z,15.67
2023-03-05T13:55:15.699Z,16.18
2023-03-05T13:57:45.296Z,17.87
2023-03-05T14:00:31.664Z,17.08
2023-03-05T14:03:25.255Z,15.55
2023-03-05T14:05:54.571Z,15.01
2023-03-05T14:08:27.365Z,14.66
2023-03-05T14:10:57.785Z,14.96
2023-03-05T14:13:30.004Z,14.30
2023-03-05T14:16:25.924Z,14.92
2023-03-05T14:18:59.503Z,16.90
2023-03-05T14:21:46.504Z,18.57
2023-03-05T14:24:22.912Z,18.25
2023-03-05T14:26:54.402Z,17.94
2023-03-05T14:29:25.430Z,18.69
2023-03-05T14:31:59.237Z,18.65
2023-03-05T14:34:42.462Z,20.79
2023-03-05T14:37:24.847Z,23.21
2023-03-05T14:40:13.639Z,24.72
2023-03-05T14:42:56.215Z,26.12
2023-03-05T14:45:32.016Z,27.54
2023-03-05T14:48:03.112Z,28.84
2023-03-05T14:50:44.211Z,30.14
2023-03-05T14:53:18.429Z,31.22
2023-03-05T14:55:50.613Z,32.80
2023-03-05T14:58:22.352Z,33.48
2023-03-05T15:00:51.424Z,35.03
2023-03-05T15:03:21.362Z,35.69
2023-03-05T15:05:52.812Z,36.94
2023-03-05T15:08:29.571Z,37.95
2023-03-05T15:11:00.066Z,38.50
2023-03-05T15:13:28.605Z,39.42
2023-03-05T15:15:57.620Z,41.64
2023-03-05T15:18:26.089Z,43.86
2023-03-05T15:20:59.186Z,46.20
2023-03-05T15:23:30.147Z,47.41
2023-03-05T15:25:58.619Z,47.37
2023-03-05T15:28:27.303Z,47.45
2023-03-05T15:30:58.225Z,48.20
2023-03-05T15:33:32.153Z,48.56
2023-03-05T15:36:05.942Z,48.50
2023-03-05T15:38:43.494Z,48.94
2023-03-05T15:41:17.334Z,48.96
2023-03-05T15:43:50.563Z,48.66
2023-03-05T15:46:23.379Z,48.74
2023-03-05T15:48:55.038Z,48.82
2023-03-05T15:51:27.338Z,49.15
2023-03-05T15:54:01.715Z,49.78
2023-03-05T15:56:34.310Z,50.17
2023-03-05T15:59:06.282Z,50.05
2023-03-05T16:01:39.444Z,50.65
2023-03-05T16:04:14.073Z,50.73
2023-03-05T16:06:48.638Z,51.14
2023-03-05T16:09:21.509Z,51.00
2023-03-05T16:11:54.266Z,51.42
2023-03-05T16:14:32.700Z,51.34
2023-03-05T16:17:05.449Z,51.97
2023-03-05T16:19:39.559Z,51.70
2023-03-05T16:22:08.137Z,52.34
2023-03-05T16:24:37.778Z,52.35
2023-03-05T16:27:06.585Z,52.07
2023-03-05T16:29:34.791Z,52.03
2023-03-05T16:32:04.798Z,52.21
2023-03-05T16:34:34.940Z,52.04
2023-03-05T16:37:07.131Z,52.76
2023-03-05T16:39:35.667Z,52.88
2023-03-05T16:42:05.274Z,53.06
2023-03-05T16:44:33.984Z,53.14
2023-03-05T16:47:03.115Z,53.87
2023-03-05T16:49:31.654Z,54.36
2023-03-05T16:52:06.204Z,54.07
2023-03-05T16:54:45.762Z,53.99
2023-03-05T16:57:15.537Z,54.41
2023-03-05T16:59:45.911Z,54.12
2023-03-05T17:02:15.526Z,53.98
2023-03-05T17:04:45.205Z,53.80
2023-03-05T17:07:14.154Z,53.72
2023-03-05T17:09:44.836Z,53.46
2023-03-05T17:12:13.252Z,53.97
2023-03-05T17:14:46.585Z,54.26
2023-03-05T17:17:17.855Z,54.01
2023-03-05T17:19:46.147Z,53.51
2023-03-05T17:22:16.328Z,53.81
2023-03-05T17:24:48.391Z,53.71
2023-03-05T17:27:19.153Z,54.03
2023-03-05T17:29:47.623Z,54.00
2023-03-05T17:32:16.362Z,53.81
2023-03-05T17:34:45.005Z,53.73
2023-03-05T17:37:14.792Z,53.72
2023-03-05T17:39:43.204Z,53.77
2023-03-05T17:42:11.738Z,53.84
2023-03-05T17:44:40.117Z,54.21
2023-03-05T17:47:09.255Z,53.77
2023-03-05T17:49:37.950Z,54.30
2023-03-05T17:52:06.543Z,54.25
2023-03-05T17:54:34.846Z,54.31
2023-03-05T17:57:04.226Z,54.52
2023-03-05T17:59:33.864Z,54.69
2023-03-05T18:02:02.817Z,54.66
2023-03-05T18:04:31.174Z,54.75
2023-03-05T18:06:59.868Z,54.48
2023-03-05T18:09:27.978Z,54.63
2023-03-05T18:11:56.579Z,54.60
2023-03-05T18:14:25.336Z,54.88
2023-03-05T18:16:55.356Z,55.00
2023-03-05T18:19:25.684Z,55.16
2023-03-05T18:21:54.485Z,55.13
2023-03-05T18:24:22.841Z,55.32
2023-03-05T18:26:51.481Z,55.35
2023-03-05T18:29:21.052Z,55.47
2023-03-05T18:31:50.254Z,55.38
2023-03-05T18:34:19.519Z,55.55
2023-03-05T18:36:48.466Z,55.44
2023-03-05T18:39:18.962Z,55.26
2023-03-05T18:41:50.435Z,55.45
2023-03-05T18:44:20.685Z,55.69
2023-03-05T18:46:49.564Z,55.43
2023-03-05T18:49:17.905Z,55.39
2023-03-05T18:51:47.430Z,55.41
2023-03-05T18:54:21.190Z,55.67
2023-03-05T18:56:49.760Z,56.03
2023-03-05T18:59:18.393Z,56.48
2023-03-05T19:01:47.275Z,56.34
2023-03-05T19:04:15.643Z,56.15
2023-03-05T19:06:44.343Z,56.24
2023-03-05T19:09:42.496Z,56.49
2023-03-05T19:12:11.496Z,56.75
2023-03-05T19:14:40.115Z,56.68
2023-03-05T19:17:08.876Z,56.58
2023-03-05T19:19:37.397Z,56.73
2023-03-05T19:22:05.923Z,56.64
2023-03-05T19:24:38.765Z,56.69
2023-03-05T19:27:11.788Z,56.71
2023-03-05T19:29:43.918Z,56.58
2023-03-05T19:32:17.986Z,56.45
2023-03-05T19:34:46.709Z,56.58
2023-03-05T19:37:15.662Z,56.72
2023-03-05T19:39:44.103Z,56.75
2023-03-05T19:42:14.098Z,56.64
2023-03-05T19:44:42.792Z,56.35
2023-03-05T19:47:14.724Z,56.29
2023-03-05T19:49:43.924Z,56.07
2023-03-05T19:52:14.265Z,56.18
2023-03-05T19:54:42.739Z,56.35
2023-03-05T19:57:12.311Z,56.31
2023-03-05T19:59:40.699Z,56.25
2023-03-05T20:02:12.083Z,56.00
2023-03-05T20:04:41.779Z,56.05
2023-03-05T20:07:12.276Z,56.07
2023-03-05T20:09:43.144Z,56.04
2023-03-05T20:12:11.993Z,56.22
2023-03-05T20:14:40.262Z,56.18
2023-03-05T20:17:08.513Z,55.81
2023-03-05T20:19:37.019Z,55.75
2023-03-05T20:22:06.292Z,55.85
2023-03-05T20:24:35.745Z,55.74
2023-03-05T20:27:04.571Z,55.46
2023-03-05T20:29:32.881Z,55.30
2023-03-05T20:32:03.303Z,55.30
2023-03-05T20:34:32.461Z,55.51
2023-03-05T20:37:05.186Z,55.55
2023-03-05T20:39:33.592Z,55.55
2023-03-05T20:42:03.360Z,55.45
2023-03-05T20:44:32.034Z,55.39
2023-03-05T20:47:23.019Z,55.18
2023-03-05T20:49:57.868Z,55.51
2023-03-05T20:52:26.373Z,55.82
2023-03-05T20:54:54.832Z,55.71
2023-03-05T20:57:24.158Z,55.70
2023-03-05T20:59:56.969Z,55.56
2023-03-05T21:02:27.706Z,55.48
2023-03-05T21:04:57.684Z,55.52
2023-03-05T21:07:32.437Z,55.58
2023-03-05T21:10:08.294Z,55.55
2023-03-05T21:12:39.154Z,55.49
2023-03-05T21:15:09.497Z,55.42
2023-03-05T21:17:38.658Z,55.23
2023-03-05T21:20:09.892Z,55.24
2023-03-05T21:22:38.060Z,55.38
2023-03-05T21:25:27.839Z,55.57
2023-03-05T21:27:56.253Z,55.82
2023-03-05T21:30:31.595Z,55.56
2023-03-05T21:33:01.375Z,55.63
2023-03-05T21:35:32.750Z,55.64
2023-03-05T21:38:02.437Z,55.87
2023-03-05T21:40:31.926Z,55.90
2023-03-05T21:43:00.610Z,55.70
2023-03-05T21:45:30.608Z,55.33
2023-03-05T21:48:01.883Z,54.93
2023-03-05T21:50:30.157Z,55.00
2023-03-05T21:52:59.267Z,55.29
2023-03-05T21:55:33.542Z,55.23
2023-03-05T21:58:03.275Z,54.98
2023-03-05T22:00:31.785Z,54.86
2023-03-05T22:03:00.636Z,54.92
2023-03-05T22:05:29.052Z,54.71
2023-03-05T22:07:58.046Z,54.98
2023-03-05T22:10:26.410Z,55.16
2023-03-05T22:13:12.510Z,55.17
2023-03-05T22:15:52.296Z,55.12
2023-03-05T22:18:23.728Z,55.28
2023-03-05T22:20:53.109Z,55.36
2023-03-05T22:23:24.566Z,55.45
2023-03-05T22:25:58.102Z,55.57
2023-03-05T22:28:30.278Z,55.48
2023-03-05T22:30:58.907Z,55.53
2023-03-05T22:33:27.889Z,55.46
2023-03-05T22:35:56.672Z,55.47
2023-03-05T22:38:25.633Z,55.72
2023-03-05T22:40:53.990Z,55.71
2023-03-05T22:43:22.502Z,55.86
2023-03-05T22:45:53.798Z,55.82
2023-03-05T22:48:22.201Z,55.67
2023-03-05T22:50:56.323Z,55.85
2023-03-05T22:53:24.828Z,56.35
2023-03-05T22:55:53.127Z,56.43
2023-03-05T22:58:21.243Z,56.46
2023-03-05T23:00:49.824Z,56.31
2023-03-05T23:03:18.614Z,56.59
2023-03-05T23:05:46.768Z,56.77
2023-03-05T23:08:15.267Z,56.97
2023-03-05T23:10:43.820Z,56.95
2023-03-05T23:13:12.393Z,57.12
2023-03-05T23:15:40.583Z,56.87
2023-03-05T23:18:09.480Z,56.77
2023-03-05T23:20:38.013Z,56.74
2023-03-05T23:23:07.241Z,56.90
2023-03-05T23:25:36.996Z,56.93
2023-03-05T23:28:05.932Z,57.38
2023-03-05T23:30:39.298Z,57.34
2023-03-05T23:33:19.962Z,57.35
2023-03-05T23:35:57.608Z,56.77
2023-03-05T23:38:29.076Z,56.59
2023-03-05T23:41:01.504Z,56.58
2023-03-05T23:43:30.676Z,56.48
2023-03-05T23:46:00.632Z,56.64
2023-03-05T23:48:30.848Z,56.40
2023-03-05T23:50:59.545Z,56.54
2023-03-05T23:53:31.384Z,56.45
2023-03-05T23:55:59.706Z,56.62
2023-03-05T23:58:28.398Z,56.54
